Terminal Aerodrome Forecast
Issued by NWS

Home | Current Version | Previous Version | Text Only | Print | Product List | Glossary Off
Versions: 1 2 3 4 5 6 7 8 9 10 11 12 13 14 15 16 17 18 19 20 21

000
FTUS43 KGRB 171723
TAFMTW
TAF
KMTW 171723Z 1718/1818 17017G25KT P6SM OVC015
      TEMPO 1718/1721 SCT015 OVC070
     FM172100 17015G21KT 5SM -RA BR OVC018
     FM180000 18013KT 4SM -RA BR OVC008
     FM180300 21008KT 2SM -RA BR OVC004
     FM180700 33004KT 1 1/2SM -RA BR OVC004
     FM181100 35010KT 4SM -RA BR OVC008
     FM181400 35015G22KT P6SM OVC020=

USA.gov is the U.S. government's official web portal to all federal, state and local government web resources and services.